Time;durP1;ratioP1;P1;durP2;ratioP2;P2;SDS_P1;SDS_P2;PMS_P1;PMS_P2;Temp;Humidity;BMP_temperature;BMP_pressure;BME280_temperature;BME280_humidity;BME280_pressure;Samples;Min_cycle;Max_cycle;Signal;HPM_P1;HPM_P2
2022/03/15 00:02:03;;;;;;;7.15;3.42;;;4.50;89.70;;;;;;4969360;28;20425;-84
2022/03/15 00:04:29;;;;;;;6.90;3.80;;;4.50;90.10;;;;;;4969953;28;20066;-86
2022/03/15 00:06:56;;;;;;;8.20;3.10;;;4.50;90.00;;;;;;4968842;28;20027;-83
2022/03/15 00:09:22;;;;;;;8.02;4.07;;;4.40;90.30;;;;;;4966583;28;20033;-84
2022/03/15 00:11:47;;;;;;;8.80;4.18;;;4.30;90.50;;;;;;4970168;28;20039;-85
2022/03/15 00:14:14;;;;;;;8.35;3.92;;;4.30;90.50;;;;;;4968301;28;20568;-84
2022/03/15 00:16:41;;;;;;;9.68;3.47;;;4.30;91.30;;;;;;4970436;28;20113;-85
2022/03/15 00:19:07;;;;;;;4.80;2.70;;;4.30;91.00;;;;;;4967699;28;20069;-84
2022/03/15 00:21:33;;;;;;;7.97;3.47;;;4.30;91.50;;;;;;4969349;28;20043;-84
2022/03/15 00:23:59;;;;;;;7.32;3.80;;;4.30;91.70;;;;;;4970454;28;20035;-84
2022/03/15 00:26:28;;;;;;;6.22;3.33;;;4.40;91.60;;;;;;4970241;28;20374;-84
2022/03/15 00:28:53;;;;;;;12.50;3.80;;;4.40;91.70;;;;;;4970552;28;20637;-85
2022/03/15 00:31:19;;;;;;;6.32;3.35;;;4.30;92.00;;;;;;4968581;28;20046;-84
2022/03/15 00:33:45;;;;;;;8.70;3.28;;;4.30;91.90;;;;;;4970352;28;20110;-86
2022/03/15 00:36:12;;;;;;;8.20;3.03;;;4.30;91.90;;;;;;4969558;28;20030;-80
2022/03/15 00:38:41;;;;;;;6.68;3.85;;;4.30;92.10;;;;;;4969526;28;20027;-81
2022/03/15 00:41:08;;;;;;;8.88;3.78;;;4.30;92.20;;;;;;4968491;28;20035;-85
2022/03/15 00:43:34;;;;;;;11.40;4.70;;;4.30;92.20;;;;;;4967964;28;20039;-86
2022/03/15 00:46:00;;;;;;;13.43;3.47;;;4.30;92.40;;;;;;4970154;28;20099;-85
2022/03/15 00:48:26;;;;;;;8.38;4.45;;;4.30;92.10;;;;;;4967183;28;20681;-87
2022/03/15 00:50:52;;;;;;;6.63;3.20;;;4.20;92.40;;;;;;4969817;28;20141;-85
2022/03/15 00:53:17;;;;;;;9.27;4.15;;;4.20;92.00;;;;;;4969894;28;20529;-85
2022/03/15 00:55:44;;;;;;;6.60;4.28;;;4.20;92.60;;;;;;4969122;28;20039;-84
2022/03/15 00:58:10;;;;;;;7.25;3.70;;;4.20;92.80;;;;;;4966797;28;20035;-85
2022/03/15 01:00:36;;;;;;;8.65;3.15;;;4.30;92.90;;;;;;4968675;28;20483;-87
2022/03/15 01:03:03;;;;;;;6.47;3.63;;;4.30;92.70;;;;;;4969813;28;20054;-88
2022/03/15 01:05:29;;;;;;;6.63;3.35;;;4.40;92.30;;;;;;4969826;28;20030;-86
2022/03/15 01:07:55;;;;;;;9.07;4.05;;;4.40;92.20;;;;;;4967671;28;20606;-87
2022/03/15 01:10:20;;;;;;;10.32;3.30;;;4.30;91.90;;;;;;4982625;28;20054;-84
2022/03/15 01:12:46;;;;;;;6.55;3.75;;;4.30;92.20;;;;;;4969679;28;20587;-87
2022/03/15 01:15:12;;;;;;;5.78;3.78;;;4.30;92.40;;;;;;4969976;28;20022;-85
2022/03/15 01:17:38;;;;;;;8.43;4.55;;;4.30;92.80;;;;;;4967941;28;20463;-85
2022/03/15 01:20:05;;;;;;;9.65;3.65;;;4.20;93.00;;;;;;4967038;28;20608;-84
2022/03/15 01:22:31;;;;;;;7.03;3.83;;;4.20;93.10;;;;;;4966973;28;20057;-85
2022/03/15 01:24:57;;;;;;;10.40;4.45;;;4.20;93.10;;;;;;4967030;28;20035;-87
2022/03/15 01:27:22;;;;;;;8.20;4.55;;;4.20;93.30;;;;;;4968636;28;20038;-88
2022/03/15 01:29:48;;;;;;;7.53;3.85;;;4.20;93.30;;;;;;4966317;28;20498;-85
2022/03/15 01:32:16;;;;;;;7.63;3.72;;;4.10;93.20;;;;;;4967762;28;20031;-86
2022/03/15 01:34:42;;;;;;;8.93;4.43;;;4.10;93.50;;;;;;4968491;28;20122;-86
2022/03/15 01:37:07;;;;;;;9.57;3.58;;;4.00;93.80;;;;;;4968606;28;20113;-87
2022/03/15 01:39:33;;;;;;;7.43;3.55;;;4.10;93.90;;;;;;4968993;28;20038;-87
2022/03/15 01:41:59;;;;;;;8.52;4.07;;;4.20;93.90;;;;;;4966918;28;20034;-87
2022/03/15 01:44:26;;;;;;;6.88;3.35;;;4.20;93.90;;;;;;4965723;28;20045;-87
2022/03/15 01:46:53;;;;;;;12.43;4.70;;;4.10;94.10;;;;;;4967863;28;20086;-86
2022/03/15 01:49:19;;;;;;;7.15;3.63;;;4.00;94.20;;;;;;4969377;28;20561;-87
2022/03/15 01:51:46;;;;;;;6.72;3.58;;;4.00;94.50;;;;;;4968301;28;20035;-86
2022/03/15 01:54:13;;;;;;;5.60;3.83;;;3.90;94.50;;;;;;4968423;28;20031;-86
2022/03/15 01:56:41;;;;;;;7.13;3.65;;;3.80;95.50;;;;;;4962739;28;20026;-88
2022/03/15 01:59:11;;;;;;;6.68;3.38;;;3.80;95.40;;;;;;4969476;28;20030;-85
2022/03/15 02:01:38;;;;;;;6.70;3.78;;;3.70;95.70;;;;;;4968103;28;20043;-86
2022/03/15 02:04:05;;;;;;;9.07;5.35;;;3.70;96.10;;;;;;4964346;28;20631;-87
2022/03/15 02:06:30;;;;;;;6.95;3.58;;;3.60;96.20;;;;;;4968882;28;20039;-86
2022/03/15 02:08:56;;;;;;;7.57;3.67;;;3.70;96.40;;;;;;4969699;28;20054;-85
2022/03/15 02:11:22;;;;;;;6.70;3.60;;;3.60;96.80;;;;;;4968134;28;20031;-86
2022/03/15 02:13:49;;;;;;;12.00;4.28;;;3.50;96.40;;;;;;4967878;28;20117;-87
2022/03/15 02:16:16;;;;;;;7.32;4.03;;;3.50;96.70;;;;;;4968769;28;20110;-86
2022/03/15 02:18:42;;;;;;;8.30;4.10;;;3.40;96.20;;;;;;4967685;28;20027;-86
2022/03/15 02:21:08;;;;;;;8.15;4.05;;;3.40;97.20;;;;;;4968877;28;20553;-87
2022/03/15 02:23:34;;;;;;;8.57;4.45;;;3.40;97.20;;;;;;4968772;28;20054;-86
2022/03/15 02:26:00;;;;;;;9.27;3.55;;;3.40;97.80;;;;;;4965884;28;20054;-86
2022/03/15 02:28:26;;;;;;;8.52;4.88;;;3.40;97.50;;;;;;4968856;28;20137;-86
2022/03/15 02:30:51;;;;;;;8.45;4.38;;;3.40;97.40;;;;;;4968614;28;20462;-87
2022/03/15 02:33:17;;;;;;;7.88;3.85;;;3.40;97.50;;;;;;4968832;28;20037;-87
2022/03/15 02:35:42;;;;;;;9.20;4.10;;;3.40;97.50;;;;;;4966946;28;20402;-87
2022/03/15 02:38:08;;;;;;;6.78;3.75;;;3.30;97.00;;;;;;4970735;28;20199;-86
2022/03/15 02:40:34;;;;;;;9.88;4.53;;;3.30;97.70;;;;;;4971845;28;20714;-85
2022/03/15 02:42:59;;;;;;;6.63;3.85;;;3.30;97.80;;;;;;4971111;28;20093;-86
2022/03/15 02:45:27;;;;;;;7.18;4.00;;;3.30;97.80;;;;;;4971371;28;20043;-86
2022/03/15 02:47:52;;;;;;;11.35;3.33;;;3.30;97.60;;;;;;4971748;28;20033;-88
2022/03/15 02:50:19;;;;;;;9.55;3.75;;;3.20;97.70;;;;;;4969683;28;20133;-86
2022/03/15 02:52:45;;;;;;;13.07;4.47;;;3.20;97.80;;;;;;4972733;28;20608;-87
2022/03/15 02:55:10;;;;;;;9.25;4.70;;;3.30;97.40;;;;;;4971083;28;20065;-87
2022/03/15 02:57:36;;;;;;;7.32;4.05;;;3.20;98.00;;;;;;4971052;28;20703;-86
2022/03/15 03:00:02;;;;;;;12.43;3.75;;;3.20;98.30;;;;;;4972406;28;20410;-85
2022/03/15 03:02:28;;;;;;;7.95;3.85;;;3.20;97.70;;;;;;4971709;28;20363;-85
2022/03/15 03:04:53;;;;;;;8.65;3.70;;;3.10;97.90;;;;;;4972095;28;20105;-84
2022/03/15 03:07:19;;;;;;;11.98;4.13;;;3.10;98.60;;;;;;4970885;28;20046;-86
2022/03/15 03:09:46;;;;;;;8.65;3.80;;;3.10;99.00;;;;;;4966899;28;20058;-87
2022/03/15 03:12:16;;;;;;;5.65;2.95;;;3.10;99.10;;;;;;4970887;28;20038;-87
2022/03/15 03:14:45;;;;;;;5.82;3.30;;;3.10;99.10;;;;;;4971863;28;20034;-86
2022/03/15 03:17:11;;;;;;;8.32;3.20;;;3.10;98.80;;;;;;4965946;28;20125;-86
2022/03/15 03:19:38;;;;;;;9.98;3.92;;;3.10;99.00;;;;;;4971777;28;20081;-86
2022/03/15 03:22:05;;;;;;;8.98;3.55;;;3.00;99.50;;;;;;4971146;28;20395;-85
2022/03/15 03:24:31;;;;;;;6.13;3.08;;;3.00;99.40;;;;;;4971070;28;20049;-86
2022/03/15 03:26:56;;;;;;;7.25;3.92;;;3.00;99.50;;;;;;4971725;28;20034;-86
2022/03/15 03:29:22;;;;;;;11.02;4.38;;;3.00;99.60;;;;;;4968845;28;20042;-87
2022/03/15 03:31:48;;;;;;;5.75;2.85;;;3.00;99.50;;;;;;4970876;28;20042;-86
2022/03/15 03:34:14;;;;;;;9.00;4.20;;;3.00;99.70;;;;;;4971035;28;20050;-86
2022/03/15 03:36:40;;;;;;;12.35;4.00;;;3.00;99.00;;;;;;4969031;28;20434;-86
2022/03/15 03:39:07;;;;;;;6.53;3.60;;;3.10;99.10;;;;;;4969242;28;20039;-87
2022/03/15 03:41:33;;;;;;;8.85;3.58;;;2.90;99.20;;;;;;4971069;28;20466;-86
2022/03/15 03:44:00;;;;;;;8.20;3.47;;;2.90;99.50;;;;;;4971358;28;20606;-87
2022/03/15 03:46:27;;;;;;;8.05;3.42;;;3.00;99.10;;;;;;4970510;28;20875;-86
2022/03/15 03:48:54;;;;;;;10.75;3.83;;;3.00;99.30;;;;;;4971822;28;20042;-87
2022/03/15 03:51:20;;;;;;;9.80;3.38;;;3.00;99.20;;;;;;4971630;28;20039;-86
2022/03/15 03:53:46;;;;;;;8.45;3.35;;;3.00;99.00;;;;;;4971124;28;20496;-86
2022/03/15 03:56:11;;;;;;;6.78;3.10;;;2.90;99.70;;;;;;4970606;28;20479;-84
2022/03/15 03:58:37;;;;;;;7.38;3.38;;;2.90;99.90;;;;;;4969227;28;20533;-86
2022/03/15 04:01:03;;;;;;;4.75;2.92;;;3.00;99.70;;;;;;4970646;28;20645;-86
2022/03/15 04:03:31;;;;;;;10.35;3.53;;;2.90;99.70;;;;;;4971131;28;20526;-86
2022/03/15 04:05:57;;;;;;;11.45;3.58;;;2.80;99.60;;;;;;4970482;28;20034;-87
2022/03/15 04:08:24;;;;;;;6.47;3.80;;;2.70;99.80;;;;;;4969986;28;20026;-87
2022/03/15 04:10:50;;;;;;;7.07;3.63;;;2.80;99.70;;;;;;4970495;28;20029;-87
2022/03/15 04:13:18;;;;;;;6.50;3.92;;;2.70;99.90;;;;;;4971166;28;20433;-86
2022/03/15 04:15:49;;;;;;;6.68;3.85;;;2.60;99.90;;;;;;4970788;28;20031;-86
2022/03/15 04:18:15;;;;;;;10.95;3.95;;;2.70;99.90;;;;;;4969654;28;20118;-87
2022/03/15 04:20:41;;;;;;;6.20;3.65;;;2.70;99.90;;;;;;4969493;28;20066;-85
2022/03/15 04:23:08;;;;;;;12.00;4.25;;;2.80;99.90;;;;;;4970707;28;20035;-87
2022/03/15 04:25:34;;;;;;;8.35;4.28;;;2.90;99.90;;;;;;4970459;28;20459;-88
2022/03/15 04:28:00;;;;;;;12.25;4.75;;;2.80;99.90;;;;;;4969885;28;20043;-87
2022/03/15 04:30:30;;;;;;;14.68;3.90;;;2.80;99.90;;;;;;4968171;28;20110;-86
2022/03/15 04:32:58;;;;;;;6.00;3.87;;;3.00;99.90;;;;;;4969297;28;20046;-87
2022/03/15 04:35:24;;;;;;;8.05;4.85;;;3.10;99.90;;;;;;4968876;28;20078;-86
2022/03/15 04:37:52;;;;;;;10.23;3.45;;;3.10;99.60;;;;;;4969248;28;20047;-87
2022/03/15 04:40:18;;;;;;;7.88;3.47;;;3.00;99.90;;;;;;4968276;28;20057;-87
2022/03/15 04:42:45;;;;;;;19.90;4.50;;;3.00;99.90;;;;;;4968981;28;20030;-87
2022/03/15 04:45:12;;;;;;;8.25;3.97;;;2.90;99.90;;;;;;4970201;28;20122;-86
2022/03/15 04:47:38;;;;;;;7.85;4.00;;;2.80;99.90;;;;;;4964738;28;20026;-87
2022/03/15 04:50:04;;;;;;;10.25;4.30;;;2.90;99.90;;;;;;4969174;28;20035;-86
2022/03/15 04:52:30;;;;;;;6.38;3.22;;;3.00;99.90;;;;;;4969736;28;20049;-86
2022/03/15 04:54:56;;;;;;;7.90;4.35;;;3.00;99.90;;;;;;4969803;28;20043;-85
2022/03/15 04:57:21;;;;;;;14.93;4.10;;;3.10;99.90;;;;;;4968483;28;20031;-88
2022/03/15 04:59:48;;;;;;;8.15;3.47;;;3.10;99.90;;;;;;4969428;28;20062;-86
2022/03/15 05:02:13;;;;;;;7.72;3.85;;;3.10;99.90;;;;;;4968845;28;20101;-87
2022/03/15 05:04:39;;;;;;;8.95;3.42;;;3.10;99.90;;;;;;4969242;28;20059;-88
2022/03/15 05:07:05;;;;;;;11.00;5.00;;;3.10;99.90;;;;;;4969516;28;20042;-86
2022/03/15 05:09:30;;;;;;;10.45;3.97;;;3.10;99.90;;;;;;4968319;28;20031;-86
2022/03/15 05:11:56;;;;;;;8.48;4.35;;;3.10;99.90;;;;;;4969509;28;20042;-87
2022/03/15 05:14:21;;;;;;;7.55;3.95;;;3.10;99.90;;;;;;4965759;28;20031;-87
2022/03/15 05:16:47;;;;;;;8.05;3.83;;;3.10;99.90;;;;;;4968310;28;20319;-87
2022/03/15 05:19:13;;;;;;;11.32;4.93;;;3.20;99.90;;;;;;4970025;28;20062;-87
2022/03/15 05:21:39;;;;;;;8.88;3.80;;;3.20;99.50;;;;;;4948767;28;20046;-88
2022/03/15 05:24:05;;;;;;;7.95;4.15;;;3.20;99.20;;;;;;4968017;28;20570;-86
2022/03/15 05:26:30;;;;;;;9.75;4.22;;;3.20;99.90;;;;;;4967940;28;20113;-85
2022/03/15 05:28:56;;;;;;;12.75;5.32;;;3.10;99.90;;;;;;4967294;28;20102;-86
2022/03/15 05:31:26;;;;;;;13.60;5.22;;;3.10;99.90;;;;;;4968921;28;20054;-87
2022/03/15 05:33:52;;;;;;;16.08;4.68;;;3.10;99.90;;;;;;4968396;28;20114;-87
2022/03/15 05:36:19;;;;;;;9.60;3.67;;;3.10;99.90;;;;;;4967433;28;20118;-86
2022/03/15 05:38:45;;;;;;;12.00;3.97;;;3.00;99.90;;;;;;4967078;28;20023;-86
2022/03/15 05:41:10;;;;;;;8.77;5.47;;;3.10;99.90;;;;;;4967394;28;20125;-86
2022/03/15 05:43:37;;;;;;;12.13;4.80;;;3.10;99.90;;;;;;4969639;28;20042;-87
2022/03/15 05:46:03;;;;;;;9.63;5.03;;;3.20;99.90;;;;;;4968666;28;20100;-83
2022/03/15 05:48:29;;;;;;;7.25;4.50;;;3.20;99.90;;;;;;4983534;28;20027;-85
2022/03/15 05:50:55;;;;;;;8.38;4.38;;;3.20;99.90;;;;;;4967591;28;20478;-86
2022/03/15 05:53:21;;;;;;;11.85;4.70;;;3.30;99.80;;;;;;4962751;28;20047;-87
2022/03/15 05:55:46;;;;;;;9.40;4.60;;;3.30;99.40;;;;;;4969212;28;20117;-85
2022/03/15 05:58:14;;;;;;;12.68;4.45;;;3.30;99.40;;;;;;4962728;28;20117;-87
2022/03/15 06:00:40;;;;;;;10.95;5.65;;;3.30;99.70;;;;;;4967667;28;20035;-87
2022/03/15 06:03:05;;;;;;;10.38;5.07;;;3.30;99.70;;;;;;4966871;28;20050;-85
2022/03/15 06:05:31;;;;;;;10.13;5.55;;;3.30;99.80;;;;;;4967637;28;20481;-87
2022/03/15 06:07:57;;;;;;;14.40;5.00;;;3.40;99.80;;;;;;4967802;28;20127;-87
2022/03/15 06:10:23;;;;;;;13.27;5.05;;;3.40;99.80;;;;;;4968924;28;20035;-87
2022/03/15 06:12:51;;;;;;;9.57;5.43;;;3.50;99.50;;;;;;4971589;28;20437;-86
2022/03/15 06:15:17;;;;;;;12.20;6.05;;;3.50;99.20;;;;;;4972686;28;20030;-87
2022/03/15 06:17:45;;;;;;;8.35;5.18;;;3.50;98.80;;;;;;4969469;28;20019;-87
2022/03/15 06:20:14;;;;;;;13.15;6.28;;;3.60;99.20;;;;;;4972159;28;20035;-85
2022/03/15 06:22:40;;;;;;;16.48;5.70;;;3.60;99.20;;;;;;4971497;28;20066;-87
2022/03/15 06:25:07;;;;;;;10.73;5.43;;;3.70;99.40;;;;;;4970559;28;20027;-89
2022/03/15 06:27:33;;;;;;;10.40;5.15;;;3.70;99.30;;;;;;4964718;28;20062;-86
2022/03/15 06:29:58;;;;;;;9.00;5.72;;;3.70;98.70;;;;;;4970380;28;20134;-85
2022/03/15 06:32:24;;;;;;;20.17;6.15;;;3.70;98.80;;;;;;4971955;28;20090;-88
2022/03/15 06:34:50;;;;;;;10.48;6.57;;;3.80;98.60;;;;;;4971855;28;20035;-87
2022/03/15 06:37:16;;;;;;;12.73;5.72;;;3.90;98.40;;;;;;4972610;28;20090;-87
2022/03/15 06:39:42;;;;;;;13.98;6.78;;;3.80;98.20;;;;;;4969764;28;20109;-87
2022/03/15 06:42:10;;;;;;;10.90;5.63;;;3.80;98.90;;;;;;4969072;28;20679;-86
2022/03/15 06:44:36;;;;;;;8.88;5.18;;;3.70;99.90;;;;;;4969082;28;20035;-88
2022/03/15 06:47:02;;;;;;;12.98;6.32;;;3.80;99.90;;;;;;4970982;28;20069;-86
2022/03/15 06:49:28;;;;;;;13.93;5.63;;;3.90;99.90;;;;;;4969447;28;20038;-87
2022/03/15 06:51:53;;;;;;;7.55;5.20;;;3.90;99.90;;;;;;4965498;28;20043;-86
2022/03/15 06:54:19;;;;;;;12.13;5.38;;;3.90;99.90;;;;;;4968952;28;20034;-86
2022/03/15 06:56:45;;;;;;;8.68;5.20;;;3.90;99.90;;;;;;4976103;28;20559;-87
2022/03/15 06:59:10;;;;;;;9.07;4.82;;;4.00;99.90;;;;;;4971543;28;20034;-87
2022/03/15 07:01:36;;;;;;;8.75;5.90;;;3.90;99.90;;;;;;4971106;28;20501;-87
2022/03/15 07:04:01;;;;;;;8.02;4.75;;;4.00;99.90;;;;;;4970740;28;20125;-85
2022/03/15 07:06:27;;;;;;;8.85;5.35;;;4.00;99.80;;;;;;4953252;28;20125;-88
2022/03/15 07:08:53;;;;;;;10.43;6.07;;;4.00;99.90;;;;;;4969995;28;20737;-87
2022/03/15 07:11:19;;;;;;;7.65;4.95;;;4.10;99.90;;;;;;4971821;28;20041;-86
2022/03/15 07:13:44;;;;;;;10.18;4.38;;;4.20;99.90;;;;;;4970754;28;20034;-87
2022/03/15 07:16:10;;;;;;;9.57;4.93;;;4.20;99.90;;;;;;4970512;28;20348;-87
2022/03/15 07:18:35;;;;;;;9.38;5.07;;;4.20;99.90;;;;;;4971218;28;20035;-86
2022/03/15 07:21:01;;;;;;;10.50;5.40;;;4.30;99.90;;;;;;4969363;28;20039;-88
2022/03/15 07:23:27;;;;;;;11.25;4.80;;;4.40;99.90;;;;;;4970837;28;20027;-87
2022/03/15 07:25:52;;;;;;;11.25;5.75;;;4.40;99.90;;;;;;4971964;28;20031;-86
2022/03/15 07:28:19;;;;;;;11.15;4.95;;;4.40;99.70;;;;;;4967043;28;20042;-86
2022/03/15 07:30:45;;;;;;;11.65;7.40;;;4.50;99.90;;;;;;4970470;28;20130;-85
2022/03/15 07:33:11;;;;;;;13.95;8.18;;;4.50;99.90;;;;;;4970249;28;20122;-85
2022/03/15 07:35:37;;;;;;;9.25;4.65;;;4.60;99.90;;;;;;4970978;28;20031;-86
2022/03/15 07:38:03;;;;;;;8.73;4.93;;;4.60;99.80;;;;;;4969128;28;20039;-84
2022/03/15 07:40:29;;;;;;;12.15;5.78;;;4.70;99.90;;;;;;4968711;28;20438;-85
2022/03/15 07:42:55;;;;;;;10.93;5.75;;;4.80;99.30;;;;;;4951102;28;20137;-85
2022/03/15 07:45:21;;;;;;;11.18;5.75;;;4.80;99.10;;;;;;4968009;28;20097;-85
2022/03/15 07:47:50;;;;;;;16.77;6.90;;;4.90;99.30;;;;;;4969286;28;20035;-83
2022/03/15 07:50:17;;;;;;;10.27;5.07;;;5.10;98.10;;;;;;4966652;28;20504;-88
2022/03/15 07:52:43;;;;;;;12.63;6.50;;;5.10;98.40;;;;;;4969281;28;20026;-86
2022/03/15 07:55:09;;;;;;;11.38;5.20;;;5.20;97.60;;;;;;4970722;28;20062;-85
2022/03/15 07:57:35;;;;;;;9.98;5.22;;;5.10;96.80;;;;;;4969682;28;20039;-87
2022/03/15 08:00:01;;;;;;;10.48;5.40;;;5.20;96.90;;;;;;4969067;28;20035;-86
2022/03/15 08:02:26;;;;;;;13.57;5.82;;;5.30;97.50;;;;;;4964941;28;20039;-91
2022/03/15 08:04:53;;;;;;;14.95;7.13;;;5.60;97.50;;;;;;4959895;28;20055;-85
2022/03/15 08:07:21;;;;;;;10.05;5.22;;;5.70;97.30;;;;;;4970363;28;20506;-85
2022/03/15 08:09:47;;;;;;;9.70;4.72;;;5.80;96.40;;;;;;4970187;28;20035;-86
2022/03/15 08:12:13;;;;;;;11.98;5.22;;;5.80;96.50;;;;;;4970139;28;20382;-86
2022/03/15 08:14:39;;;;;;;9.50;5.05;;;5.70;97.30;;;;;;4966862;28;20126;-85
2022/03/15 08:17:04;;;;;;;6.47;4.57;;;5.90;98.20;;;;;;4969599;28;20113;-87
2022/03/15 08:19:30;;;;;;;9.85;4.35;;;5.90;97.70;;;;;;4969655;28;20055;-87
2022/03/15 08:22:01;;;;;;;10.73;5.53;;;5.90;98.00;;;;;;4964964;28;20031;-85
2022/03/15 08:24:27;;;;;;;12.25;5.25;;;5.90;97.70;;;;;;4969477;28;20062;-87
2022/03/15 08:26:53;;;;;;;9.40;4.65;;;6.00;97.00;;;;;;4962864;28;20022;-86
2022/03/15 08:29:19;;;;;;;6.45;3.97;;;6.00;97.20;;;;;;4967084;28;20059;-88
2022/03/15 08:31:44;;;;;;;9.82;4.68;;;6.20;97.70;;;;;;4969680;28;20600;-84
2022/03/15 08:34:10;;;;;;;8.48;4.25;;;6.30;95.30;;;;;;4967746;28;20039;-85
2022/03/15 08:36:36;;;;;;;9.07;4.15;;;6.60;97.10;;;;;;4966497;28;20055;-86
2022/03/15 08:39:03;;;;;;;6.55;4.25;;;6.70;94.50;;;;;;4968511;28;20031;-85
2022/03/15 08:41:29;;;;;;;7.18;4.18;;;6.80;94.70;;;;;;4969448;28;20042;-85
2022/03/15 08:43:55;;;;;;;7.57;4.05;;;6.70;95.80;;;;;;4969879;28;20410;-84
2022/03/15 08:46:20;;;;;;;9.23;4.95;;;6.40;97.70;;;;;;4969408;28;20078;-86
2022/03/15 08:48:46;;;;;;;9.98;4.45;;;6.30;98.60;;;;;;4966571;28;20035;-86
2022/03/15 08:51:12;;;;;;;7.45;4.30;;;6.30;99.90;;;;;;4969036;28;20034;-85
2022/03/15 08:53:38;;;;;;;13.15;5.35;;;6.40;99.60;;;;;;4969485;28;20031;-86
2022/03/15 08:56:05;;;;;;;8.82;4.80;;;6.50;99.90;;;;;;4969736;28;20023;-86
2022/03/15 08:58:31;;;;;;;12.52;4.97;;;6.60;99.60;;;;;;4968626;28;20031;-86
2022/03/15 09:00:58;;;;;;;7.75;4.38;;;6.60;99.50;;;;;;4968613;28;20058;-86
2022/03/15 09:03:24;;;;;;;6.63;3.90;;;6.70;98.70;;;;;;4966703;28;20410;-85
2022/03/15 09:05:50;;;;;;;6.35;3.67;;;6.60;98.20;;;;;;4968694;28;20030;-84
2022/03/15 09:08:16;;;;;;;12.90;4.50;;;6.60;99.40;;;;;;4967575;28;20039;-86
2022/03/15 09:10:44;;;;;;;6.85;3.85;;;6.40;99.80;;;;;;4968145;28;20046;-85
2022/03/15 09:13:10;;;;;;;9.75;3.75;;;6.50;99.90;;;;;;4961159;28;20054;-84
2022/03/15 09:15:36;;;;;;;7.00;4.38;;;6.60;99.10;;;;;;4968824;28;20099;-84
2022/03/15 09:18:02;;;;;;;10.30;4.32;;;6.70;99.90;;;;;;4969424;28;20121;-85
2022/03/15 09:20:28;;;;;;;7.50;4.00;;;6.50;97.80;;;;;;4969327;28;20039;-85
2022/03/15 09:22:54;;;;;;;8.63;4.05;;;6.60;99.10;;;;;;4951581;28;20045;-84
2022/03/15 09:25:20;;;;;;;8.35;4.40;;;6.40;99.50;;;;;;4967340;28;20047;-84
2022/03/15 09:27:47;;;;;;;8.38;4.35;;;6.40;98.80;;;;;;4983363;28;20135;-86
2022/03/15 09:30:14;;;;;;;7.38;4.60;;;6.40;98.80;;;;;;4968935;28;20037;-86
2022/03/15 09:32:39;;;;;;;6.32;4.22;;;6.50;98.90;;;;;;4968097;28;20043;-86
2022/03/15 09:35:06;;;;;;;9.43;4.45;;;6.50;99.10;;;;;;4968216;28;20038;-84
2022/03/15 09:37:32;;;;;;;6.45;4.15;;;6.60;99.90;;;;;;4967202;28;20031;-86
2022/03/15 09:39:58;;;;;;;8.70;4.97;;;6.80;99.90;;;;;;4968333;28;20023;-83
2022/03/15 09:42:26;;;;;;;6.68;4.82;;;6.90;99.90;;;;;;4968941;28;20037;-86
2022/03/15 09:44:53;;;;;;;6.65;4.20;;;7.00;99.70;;;;;;4967782;28;20038;-84
2022/03/15 09:47:24;;;;;;;5.07;3.30;;;6.90;99.50;;;;;;4967265;28;20118;-85
2022/03/15 09:49:52;;;;;;;;;;;7.10;98.60;;;;;;4968017;28;20532;-84
2022/03/15 09:52:20;;;;;;;6.30;4.38;;;7.10;99.80;;;;;;4968086;28;19918;-84
2022/03/15 09:54:47;;;;;;;8.10;4.05;;;7.20;98.90;;;;;;4967608;28;20031;-85
2022/03/15 09:57:13;;;;;;;10.02;4.65;;;7.30;97.80;;;;;;4967955;28;20137;-84
2022/03/15 09:59:39;;;;;;;9.40;4.50;;;7.20;98.10;;;;;;4967707;28;20062;-85
2022/03/15 10:02:06;;;;;;;14.68;5.05;;;7.20;99.20;;;;;;4967119;28;20039;-87
2022/03/15 10:04:32;;;;;;;6.97;3.90;;;7.20;99.50;;;;;;4968453;28;20068;-85
2022/03/15 10:06:57;;;;;;;8.07;4.30;;;7.00;99.90;;;;;;4968364;28;20557;-86
2022/03/15 10:09:25;;;;;;;8.50;4.28;;;7.00;99.90;;;;;;4967170;28;20030;-87
2022/03/15 10:11:52;;;;;;;7.50;3.95;;;6.90;99.90;;;;;;4967411;28;20398;-86
2022/03/15 10:14:19;;;;;;;7.38;3.80;;;6.80;99.90;;;;;;4969276;28;20547;-86
2022/03/15 10:16:47;;;;;;;7.07;4.22;;;6.80;99.90;;;;;;4961990;28;20025;-87
2022/03/15 10:19:14;;;;;;;9.65;5.05;;;6.90;99.90;;;;;;4968744;28;20030;-85
2022/03/15 10:21:53;;;;;;;10.00;4.82;;;6.90;99.90;;;;;;4967735;28;20471;-85
2022/03/15 10:24:22;;;;;;;7.60;4.85;;;6.90;99.90;;;;;;4968203;28;20041;-86
2022/03/15 10:26:50;;;;;;;10.70;5.47;;;7.00;99.90;;;;;;4980996;28;20566;-86
2022/03/15 10:29:17;;;;;;;10.25;5.60;;;7.10;99.90;;;;;;4967066;28;20093;-85
2022/03/15 10:31:44;;;;;;;7.18;4.95;;;7.10;99.90;;;;;;4966819;28;20038;-86
2022/03/15 10:34:11;;;;;;;10.18;4.32;;;7.20;99.90;;;;;;4968543;28;20087;-85
2022/03/15 10:36:49;;;;;;;8.15;4.78;;;7.20;99.90;;;;;;4968321;28;20078;-85
2022/03/15 10:39:17;;;;;;;8.27;4.65;;;7.10;99.90;;;;;;4965881;28;20027;-85
2022/03/15 10:41:48;;;;;;;8.57;4.90;;;6.90;99.90;;;;;;4966931;28;20035;-85
2022/03/15 10:44:18;;;;;;;;;;;6.80;99.90;;;;;;4967582;28;20042;-85
2022/03/15 10:46:55;;;;;;;7.07;4.60;;;6.60;99.90;;;;;;4968272;28;20289;-85
2022/03/15 10:49:21;;;;;;;8.30;5.05;;;6.80;99.90;;;;;;4963833;28;20282;-87
2022/03/15 10:51:47;;;;;;;10.55;5.25;;;7.20;99.90;;;;;;4964888;28;20034;-85
2022/03/15 10:54:15;;;;;;;7.95;4.60;;;7.00;99.90;;;;;;4964680;28;20040;-85
2022/03/15 10:56:41;;;;;;;7.72;4.68;;;7.10;99.90;;;;;;4967901;28;20034;-86
2022/03/15 10:59:09;;;;;;;10.45;5.05;;;7.10;99.90;;;;;;4970827;28;20023;-86
2022/03/15 11:01:40;;;;;;;10.63;4.57;;;7.20;99.90;;;;;;4968122;28;20039;-86
2022/03/15 11:04:11;;;;;;;8.52;4.35;;;7.10;99.90;;;;;;4972326;28;20046;-87
2022/03/15 11:06:44;;;;;;;8.45;5.05;;;7.10;99.90;;;;;;4970752;28;20045;-85
2022/03/15 11:09:26;;;;;;;11.38;5.40;;;7.10;99.90;;;;;;4967616;28;20038;-85
2022/03/15 11:12:06;;;;;;;5.95;4.22;;;7.10;99.90;;;;;;4972753;28;20106;-83
2022/03/15 11:14:54;;;;;;;8.32;4.18;;;7.00;99.90;;;;;;4971948;28;20027;-85
2022/03/15 11:17:23;;;;;;;9.18;4.90;;;7.20;99.90;;;;;;4970940;28;20027;-86
2022/03/15 11:19:55;;;;;;;10.82;4.65;;;7.20;99.90;;;;;;4970984;28;20387;-84
2022/03/15 11:22:34;;;;;;;12.52;4.47;;;7.20;99.90;;;;;;4970916;28;20045;-86
2022/03/15 11:25:10;;;;;;;7.43;4.93;;;7.20;99.90;;;;;;4970998;28;20221;-85
2022/03/15 11:27:40;;;;;;;7.68;5.30;;;7.20;99.90;;;;;;4971304;28;20057;-84
2022/03/15 11:30:17;;;;;;;10.80;5.97;;;7.30;99.90;;;;;;4968117;28;20457;-84
2022/03/15 11:32:43;;;;;;;8.98;3.90;;;7.20;99.90;;;;;;4968318;28;20039;-85
2022/03/15 11:35:11;;;;;;;11.07;4.50;;;7.30;99.90;;;;;;4970556;28;20026;-85
2022/03/15 11:37:38;;;;;;;10.35;4.70;;;7.40;99.90;;;;;;4974615;28;20027;-84
2022/03/15 11:40:06;;;;;;;7.45;4.13;;;7.40;99.90;;;;;;4970223;28;21447;-87
2022/03/15 11:42:34;;;;;;;8.68;4.72;;;7.40;99.90;;;;;;4967593;28;20094;-84
2022/03/15 11:45:11;;;;;;;7.60;4.82;;;7.50;99.90;;;;;;4971830;28;20053;-85
2022/03/15 11:48:05;;;;;;;8.23;5.22;;;7.60;99.90;;;;;;4971185;28;20379;-84
2022/03/15 11:51:09;;;;;;;8.80;5.70;;;7.50;99.90;;;;;;4970735;28;20030;-84
2022/03/15 11:53:58;;;;;;;14.70;8.02;;;7.50;99.90;;;;;;4968091;28;20031;-84
2022/03/15 11:56:32;;;;;;;23.05;12.23;;;7.40;99.90;;;;;;4968381;28;20442;-84
2022/03/15 11:58:58;;;;;;;9.95;5.45;;;7.50;99.90;;;;;;4965467;28;20113;-84
2022/03/15 12:01:25;;;;;;;20.13;12.85;;;7.40;99.90;;;;;;4968068;28;20039;-85
2022/03/15 12:03:57;;;;;;;16.55;10.20;;;7.50;99.90;;;;;;4965760;28;20058;-85
2022/03/15 12:06:28;;;;;;;16.45;11.85;;;7.50;99.90;;;;;;4966551;28;20076;-84
2022/03/15 12:08:57;;;;;;;7.43;4.82;;;7.70;99.90;;;;;;4966568;28;20782;-85
2022/03/15 12:11:41;;;;;;;9.32;4.68;;;7.60;99.90;;;;;;4968439;28;20103;-84
2022/03/15 12:14:19;;;;;;;8.68;3.95;;;7.40;99.90;;;;;;4968216;28;20549;-84
2022/03/15 12:16:51;;;;;;;7.88;4.22;;;7.30;99.90;;;;;;4969839;28;20014;-85
2022/03/15 12:19:35;;;;;;;6.95;4.30;;;7.30;99.90;;;;;;4967241;28;20046;-84
2022/03/15 12:25:35;;;;;;;8.52;3.92;;;7.20;99.90;;;;;;4969119;28;20033;-85
2022/03/15 12:28:04;;;;;;;8.02;4.40;;;7.30;99.90;;;;;;4968293;28;20352;-85
2022/03/15 12:30:30;;;;;;;6.90;3.78;;;7.30;99.90;;;;;;4970028;28;20045;-86
2022/03/15 12:32:57;;;;;;;6.18;4.15;;;7.20;99.90;;;;;;4969736;28;20137;-84
2022/03/15 12:35:28;;;;;;;8.45;5.55;;;7.10;99.90;;;;;;4968805;28;20023;-86
2022/03/15 12:38:05;;;;;;;;;;;6.90;99.90;;;;;;4963900;28;20035;-85
2022/03/15 12:40:31;;;;;;;7.65;4.35;;;6.90;99.90;;;;;;4968325;28;19914;-86
2022/03/15 12:43:01;;;;;;;6.90;4.28;;;6.80;99.90;;;;;;4968215;28;20030;-86
2022/03/15 12:45:28;;;;;;;9.35;4.03;;;6.70;99.90;;;;;;4969183;28;20050;-85
2022/03/15 12:48:06;;;;;;;9.50;5.45;;;6.60;99.90;;;;;;4968804;28;20079;-85
2022/03/15 12:50:33;;;;;;;10.77;5.22;;;6.50;99.90;;;;;;4969202;28;20595;-85
2022/03/15 12:53:14;;;;;;;10.18;5.60;;;6.60;99.90;;;;;;4968405;28;20045;-87
2022/03/15 12:55:44;;;;;;;8.35;5.15;;;6.60;99.90;;;;;;4965312;28;20122;-85
2022/03/15 12:58:14;;;;;;;9.02;5.68;;;6.60;99.90;;;;;;4969585;28;20433;-85
2022/03/15 13:00:44;;;;;;;10.47;5.07;;;6.70;99.90;;;;;;4950585;28;20130;-85